createdAt,value
2022-10-04T00:02:26.570Z,12.02
2022-10-04T00:05:01.335Z,12.01
2022-10-04T00:07:34.910Z,11.92
2022-10-04T00:10:08.761Z,11.80
2022-10-04T00:12:41.779Z,11.75
2022-10-04T00:15:27.197Z,11.62
2022-10-04T00:18:06.561Z,11.44
2022-10-04T00:21:01.321Z,11.17
2022-10-04T00:23:46.285Z,11.13
2022-10-04T00:26:59.416Z,11.16
2022-10-04T00:29:34.098Z,11.08
2022-10-04T00:32:28.634Z,11.04
2022-10-04T00:34:57.625Z,11.08
2022-10-04T00:37:27.197Z,11.07
2022-10-04T00:40:05.974Z,11.08
2022-10-04T00:42:53.978Z,11.09
2022-10-04T00:45:32.081Z,11.09
2022-10-04T00:48:30.339Z,11.04
2022-10-04T00:51:05.758Z,11.04
2022-10-04T00:53:42.874Z,11.05
2022-10-04T00:56:16.558Z,11.14
2022-10-04T00:58:52.323Z,10.99
2022-10-04T01:01:25.119Z,11.00
2022-10-04T01:03:56.659Z,11.00
2022-10-04T01:06:26.501Z,10.95
2022-10-04T01:08:57.275Z,10.98
2022-10-04T01:11:30.686Z,11.02
2022-10-04T01:14:01.032Z,11.12
2022-10-04T01:16:30.634Z,10.98
2022-10-04T01:19:27.210Z,10.94
2022-10-04T01:22:01.079Z,10.88
2022-10-04T01:24:35.900Z,10.95
2022-10-04T01:27:05.007Z,10.90
2022-10-04T01:29:33.546Z,10.88
2022-10-04T01:32:03.026Z,10.93
2022-10-04T01:34:31.886Z,11.02
2022-10-04T01:37:01.580Z,11.01
2022-10-04T01:39:32.383Z,10.90
2022-10-04T01:42:06.383Z,10.84
2022-10-04T01:44:40.437Z,10.84
2022-10-04T01:47:14.327Z,10.80
2022-10-04T01:49:45.308Z,10.78
2022-10-04T01:52:19.583Z,10.68
2022-10-04T01:54:53.136Z,10.72
2022-10-04T01:57:25.234Z,10.76
2022-10-04T01:59:58.858Z,10.72
2022-10-04T02:02:32.131Z,10.62
2022-10-04T02:05:01.553Z,10.61
2022-10-04T02:07:33.659Z,10.58
2022-10-04T02:10:06.602Z,10.65
2022-10-04T02:12:36.462Z,10.70
2022-10-04T02:15:08.539Z,10.75
2022-10-04T02:17:43.221Z,10.72
2022-10-04T02:20:17.284Z,10.74
2022-10-04T02:22:47.657Z,10.67
2022-10-04T02:25:21.173Z,10.59
2022-10-04T02:27:53.133Z,10.55
2022-10-04T02:30:21.832Z,10.59
2022-10-04T02:32:59.814Z,10.61
2022-10-04T02:35:31.125Z,10.64
2022-10-04T02:38:10.171Z,10.65
2022-10-04T02:40:46.552Z,10.67
2022-10-04T02:43:20.996Z,10.69
2022-10-04T02:45:54.107Z,10.69
2022-10-04T02:48:36.866Z,10.58
2022-10-04T02:51:19.489Z,10.52
2022-10-04T02:54:03.174Z,10.42
2022-10-04T02:56:34.645Z,10.45
2022-10-04T02:59:04.757Z,10.38
2022-10-04T03:01:50.603Z,10.31
2022-10-04T03:04:21.184Z,10.28
2022-10-04T03:06:49.641Z,10.26
2022-10-04T03:09:22.017Z,10.23
2022-10-04T03:11:53.995Z,10.24
2022-10-04T03:14:26.147Z,10.29
2022-10-04T03:17:00.702Z,10.29
2022-10-04T03:19:31.605Z,10.26
2022-10-04T03:22:03.746Z,10.28
2022-10-04T03:24:34.530Z,10.33
2022-10-04T03:27:07.809Z,10.33
2022-10-04T03:29:36.633Z,10.38
2022-10-04T03:32:06.410Z,10.38
2022-10-04T03:34:37.377Z,10.43
2022-10-04T03:37:11.192Z,10.37
2022-10-04T03:39:43.567Z,10.41
2022-10-04T03:42:16.927Z,10.39
2022-10-04T03:44:46.808Z,10.42
2022-10-04T03:47:20.797Z,10.36
2022-10-04T03:49:51.244Z,10.35
2022-10-04T03:52:22.866Z,10.34
2022-10-04T03:54:53.451Z,10.33
2022-10-04T03:57:23.864Z,10.32
2022-10-04T03:59:52.905Z,10.28
2022-10-04T04:02:31.222Z,10.25
2022-10-04T04:05:08.954Z,10.25
2022-10-04T04:07:44.265Z,10.30
2022-10-04T04:10:21.250Z,10.26
2022-10-04T04:12:56.394Z,10.26
2022-10-04T04:15:29.841Z,10.26
2022-10-04T04:18:02.181Z,10.27
2022-10-04T04:20:34.197Z,10.31
2022-10-04T04:23:06.832Z,10.26
2022-10-04T04:25:39.179Z,10.32
2022-10-04T04:28:27.456Z,10.37
2022-10-04T04:31:01.631Z,10.43
2022-10-04T04:33:32.691Z,10.50
2022-10-04T04:36:06.432Z,10.54
2022-10-04T04:38:35.563Z,10.60
2022-10-04T04:41:11.763Z,10.65
2022-10-04T04:43:44.793Z,10.68
2022-10-04T04:46:27.243Z,10.85
2022-10-04T04:49:02.059Z,10.85
2022-10-04T04:51:32.679Z,10.99
2022-10-04T04:54:03.711Z,11.01
2022-10-04T04:56:32.373Z,11.03
2022-10-04T04:59:04.944Z,10.99
2022-10-04T05:01:36.540Z,11.03
2022-10-04T05:04:06.994Z,11.14
2022-10-04T05:06:36.975Z,11.08
2022-10-04T05:09:06.745Z,11.23
2022-10-04T05:11:37.677Z,11.43
2022-10-04T05:14:10.606Z,11.64
2022-10-04T05:16:43.958Z,11.69
2022-10-04T05:19:17.605Z,11.74
2022-10-04T05:21:48.603Z,11.97
2022-10-04T05:24:22.884Z,12.09
2022-10-04T05:26:53.754Z,12.19
2022-10-04T05:29:27.708Z,12.20
2022-10-04T05:32:17.088Z,12.27
2022-10-04T05:34:50.255Z,12.54
2022-10-04T05:37:31.209Z,12.71
2022-10-04T05:40:11.109Z,12.78
2022-10-04T05:42:45.630Z,12.80
2022-10-04T05:45:19.875Z,12.86
2022-10-04T05:47:50.947Z,13.03
2022-10-04T05:50:24.379Z,13.02
2022-10-04T05:52:53.654Z,13.15
2022-10-04T05:55:34.346Z,13.07
2022-10-04T05:58:31.503Z,13.37
2022-10-04T06:01:24.926Z,13.58
2022-10-04T06:04:19.157Z,13.95
2022-10-04T06:06:52.509Z,14.52
2022-10-04T06:09:38.392Z,15.87
2022-10-04T06:12:13.599Z,14.91
2022-10-04T06:15:08.750Z,15.61
2022-10-04T06:17:56.277Z,14.84
2022-10-04T06:21:15.989Z,14.62
2022-10-04T06:23:51.369Z,14.08
2022-10-04T06:26:25.289Z,13.83
2022-10-04T06:28:57.719Z,14.10
2022-10-04T06:31:48.211Z,13.91
2022-10-04T06:34:44.299Z,13.42
2022-10-04T06:37:39.914Z,13.22
2022-10-04T06:40:38.739Z,13.39
2022-10-04T06:43:23.473Z,13.40
2022-10-04T06:46:09.173Z,13.77
2022-10-04T06:48:55.568Z,14.02
2022-10-04T06:51:41.905Z,14.01
2022-10-04T06:54:28.166Z,14.02
2022-10-04T06:57:19.076Z,13.94
2022-10-04T07:00:06.438Z,14.18
2022-10-04T07:02:41.448Z,14.20
2022-10-04T07:05:19.216Z,14.52
2022-10-04T07:08:06.808Z,14.16
2022-10-04T07:10:42.104Z,14.14
2022-10-04T07:13:24.667Z,13.68
2022-10-04T07:15:58.417Z,13.70
2022-10-04T07:18:35.613Z,13.87
2022-10-04T07:21:09.114Z,14.14
2022-10-04T07:23:45.716Z,14.22
2022-10-04T07:26:24.346Z,14.32
2022-10-04T07:29:12.778Z,14.57
2022-10-04T07:31:44.231Z,14.79
2022-10-04T07:34:18.540Z,14.70
2022-10-04T07:36:51.176Z,14.91
2022-10-04T07:39:26.057Z,14.92
2022-10-04T07:41:56.402Z,15.09
2022-10-04T07:44:35.638Z,14.94
2022-10-04T07:47:14.787Z,15.17
2022-10-04T07:49:43.250Z,15.30
2022-10-04T07:52:26.736Z,15.38
2022-10-04T07:55:05.611Z,15.35
2022-10-04T07:57:47.535Z,15.28
2022-10-04T08:00:20.526Z,15.29
2022-10-04T08:03:06.339Z,15.59
2022-10-04T08:05:38.331Z,15.55
2022-10-04T08:08:30.982Z,15.37
2022-10-04T08:11:17.362Z,15.56
2022-10-04T08:13:59.786Z,15.72
2022-10-04T08:16:37.074Z,15.79
2022-10-04T08:19:25.702Z,15.92
2022-10-04T08:22:01.632Z,15.89
2022-10-04T08:24:36.951Z,15.96
2022-10-04T08:27:27.544Z,16.14
2022-10-04T08:30:04.860Z,16.09
2022-10-04T08:32:54.892Z,16.25
2022-10-04T08:35:36.277Z,16.37
2022-10-04T08:38:27.249Z,16.28
2022-10-04T08:41:38.201Z,16.37
2022-10-04T08:44:52.754Z,16.61
2022-10-04T08:48:11.209Z,16.48
2022-10-04T08:51:23.726Z,16.39
2022-10-04T08:54:26.382Z,16.64
2022-10-04T08:57:06.025Z,16.93
2022-10-04T09:00:06.148Z,16.38
2022-10-04T09:02:59.103Z,16.80
2022-10-04T09:05:40.080Z,16.85
2022-10-04T09:08:50.166Z,17.24
2022-10-04T09:11:33.750Z,17.66
2022-10-04T09:14:21.246Z,17.70
2022-10-04T09:17:00.937Z,17.18
2022-10-04T09:19:46.135Z,17.24
2022-10-04T09:22:20.226Z,16.50
2022-10-04T09:25:31.385Z,16.40
2022-10-04T09:28:44.140Z,16.79
2022-10-04T09:31:34.620Z,17.29
2022-10-04T09:34:25.794Z,17.70
2022-10-04T09:37:14.258Z,17.85
2022-10-04T09:40:01.045Z,18.17
2022-10-04T09:42:54.563Z,18.62
2022-10-04T09:45:53.683Z,19.15
2022-10-04T09:48:30.443Z,19.26
2022-10-04T09:51:42.080Z,19.37
2022-10-04T09:54:35.126Z,19.48
2022-10-04T09:57:21.567Z,18.85
2022-10-04T10:00:09.882Z,19.07
2022-10-04T10:03:30.424Z,19.29
2022-10-04T10:06:23.835Z,19.56
2022-10-04T10:09:10.687Z,19.66
2022-10-04T10:12:06.746Z,19.09
2022-10-04T10:14:57.165Z,18.89
2022-10-04T10:17:37.345Z,18.44
2022-10-04T10:20:31.608Z,18.56
2022-10-04T10:23:14.040Z,18.66
2022-10-04T10:25:54.983Z,18.60
2022-10-04T10:28:42.291Z,18.84
2022-10-04T10:31:31.621Z,18.80
2022-10-04T10:34:21.189Z,18.53
2022-10-04T10:37:09.110Z,18.60
2022-10-04T10:40:21.049Z,18.67
2022-10-04T10:43:14.521Z,18.94
2022-10-04T10:46:11.818Z,19.09
2022-10-04T10:48:57.059Z,18.84
2022-10-04T10:51:55.947Z,18.93
2022-10-04T10:55:08.284Z,19.14
2022-10-04T10:58:13.620Z,19.28
2022-10-04T11:00:54.902Z,19.22
2022-10-04T11:04:01.925Z,18.95
2022-10-04T11:07:05.486Z,18.63
2022-10-04T11:09:47.910Z,18.35
2022-10-04T11:12:55.833Z,18.32
2022-10-04T11:16:08.785Z,18.02
2022-10-04T11:19:19.150Z,18.04
2022-10-04T11:22:33.700Z,17.88
2022-10-04T11:25:43.621Z,17.81
2022-10-04T11:28:19.070Z,17.88
2022-10-04T11:31:17.554Z,17.99
2022-10-04T11:34:17.889Z,17.99
2022-10-04T11:37:06.375Z,17.78
2022-10-04T11:40:09.379Z,17.96
2022-10-04T11:42:58.292Z,17.88
2022-10-04T11:45:40.230Z,17.79
2022-10-04T11:48:21.591Z,17.62
2022-10-04T11:51:12.676Z,17.10
2022-10-04T11:54:04.663Z,16.83
2022-10-04T11:56:43.597Z,16.95
2022-10-04T11:59:27.577Z,16.95
2022-10-04T12:02:41.315Z,17.11
2022-10-04T12:05:27.469Z,17.25
2022-10-04T12:08:12.063Z,17.21
2022-10-04T12:10:41.730Z,17.43
2022-10-04T12:13:40.608Z,17.52
2022-10-04T12:16:44.635Z,17.59
2022-10-04T12:19:42.608Z,17.76
2022-10-04T12:22:45.211Z,17.49
2022-10-04T12:25:48.569Z,17.56
2022-10-04T12:28:34.762Z,17.66
2022-10-04T12:31:17.616Z,17.80
2022-10-04T12:33:54.208Z,17.91
2022-10-04T12:36:43.933Z,17.96
2022-10-04T12:39:28.516Z,18.21
2022-10-04T12:42:11.843Z,18.39
2022-10-04T12:44:56.394Z,18.52
2022-10-04T12:47:52.861Z,18.87
2022-10-04T12:50:34.756Z,19.07
2022-10-04T12:53:15.631Z,18.76
2022-10-04T12:56:00.635Z,18.52
2022-10-04T12:58:45.012Z,18.18
2022-10-04T13:01:23.170Z,18.02
2022-10-04T13:04:18.013Z,17.94
2022-10-04T13:06:59.528Z,17.95
2022-10-04T13:09:59.860Z,17.85
2022-10-04T13:13:04.403Z,17.63
2022-10-04T13:18:37.283Z,17.42
2022-10-04T13:21:08.021Z,17.41
2022-10-04T13:23:54.051Z,17.33
2022-10-04T13:26:39.494Z,17.21
2022-10-04T13:29:20.957Z,16.85
2022-10-04T13:31:54.092Z,16.60
2022-10-04T13:34:32.981Z,16.77
2022-10-04T13:37:21.293Z,16.77
2022-10-04T13:40:16.005Z,16.65
2022-10-04T13:43:01.205Z,16.71
2022-10-04T13:45:39.341Z,16.85
2022-10-04T13:48:28.131Z,16.50
2022-10-04T13:51:20.583Z,16.63
2022-10-04T13:54:16.047Z,16.95
2022-10-04T13:56:58.615Z,16.99
2022-10-04T13:59:36.735Z,17.04
2022-10-04T14:02:31.363Z,17.00
2022-10-04T14:05:39.056Z,17.00
2022-10-04T14:08:36.840Z,16.92
2022-10-04T14:11:39.275Z,16.73
2022-10-04T14:14:48.132Z,16.68
2022-10-04T14:18:01.502Z,16.64
2022-10-04T14:21:06.812Z,16.60
2022-10-04T14:24:19.507Z,16.52
2022-10-04T14:27:24.111Z,16.00
2022-10-04T14:30:19.987Z,15.94
2022-10-04T14:33:34.288Z,16.07
2022-10-04T14:36:25.012Z,15.82
2022-10-04T14:39:19.312Z,15.86
2022-10-04T14:42:16.295Z,15.73
2022-10-04T14:45:19.775Z,15.63
2022-10-04T14:48:20.024Z,15.36
2022-10-04T14:51:10.611Z,15.20
2022-10-04T14:53:50.451Z,15.06
2022-10-04T14:56:44.497Z,15.05
2022-10-04T14:59:43.428Z,14.98
2022-10-04T15:02:49.513Z,14.96
2022-10-04T15:05:44.322Z,14.88
2022-10-04T15:09:08.330Z,14.75
2022-10-04T15:11:44.370Z,14.61
2022-10-04T15:14:32.727Z,14.45
2022-10-04T15:17:02.828Z,14.35
2022-10-04T15:19:34.838Z,14.22
2022-10-04T15:22:12.508Z,14.09
2022-10-04T15:24:49.834Z,13.96
2022-10-04T15:27:44.436Z,13.93
2022-10-04T15:30:22.379Z,14.00
2022-10-04T15:33:07.929Z,13.98
2022-10-04T15:35:42.878Z,13.97
2022-10-04T15:38:27.418Z,13.98
2022-10-04T15:41:04.173Z,13.90
2022-10-04T15:43:42.809Z,13.86
2022-10-04T15:46:32.785Z,13.78
2022-10-04T15:49:25.095Z,13.72
2022-10-04T15:52:12.282Z,13.68
2022-10-04T15:55:04.835Z,13.62
2022-10-04T15:57:42.533Z,13.59
2022-10-04T16:00:15.297Z,13.60
2022-10-04T16:03:03.541Z,13.59
2022-10-04T16:05:37.633Z,13.51
2022-10-04T16:08:40.409Z,13.46
2022-10-04T16:11:33.253Z,13.44
2022-10-04T16:14:35.403Z,13.48
2022-10-04T16:17:38.715Z,13.50
2022-10-04T16:20:40.750Z,13.48
2022-10-04T16:23:31.627Z,13.47
2022-10-04T16:26:02.203Z,13.46
2022-10-04T16:28:57.103Z,13.45
2022-10-04T16:31:39.629Z,13.44
2022-10-04T16:34:29.273Z,13.38
2022-10-04T16:37:05.258Z,13.31
2022-10-04T16:39:55.848Z,13.22
2022-10-04T16:42:29.296Z,13.16
2022-10-04T16:45:03.238Z,13.08
2022-10-04T16:47:35.039Z,13.03
2022-10-04T16:50:05.181Z,12.94
2022-10-04T16:53:00.773Z,12.90
2022-10-04T16:55:52.307Z,12.85
2022-10-04T16:58:57.148Z,12.76
2022-10-04T17:01:58.405Z,12.74
2022-10-04T17:04:55.742Z,12.71
2022-10-04T17:07:35.020Z,12.68
2022-10-04T17:10:20.371Z,12.60
2022-10-04T17:12:56.869Z,12.56
2022-10-04T17:15:49.909Z,12.57
2022-10-04T17:18:31.496Z,12.51
2022-10-04T17:21:06.262Z,12.44
2022-10-04T17:24:19.504Z,12.34
2022-10-04T17:27:05.653Z,12.35
2022-10-04T17:29:48.664Z,12.36
2022-10-04T17:32:26.369Z,12.36
2022-10-04T17:35:14.029Z,12.42
2022-10-04T17:37:54.425Z,12.50
2022-10-04T17:40:34.623Z,12.36
2022-10-04T17:43:08.551Z,12.30
2022-10-04T17:45:58.672Z,12.30
2022-10-04T17:48:48.100Z,12.29
2022-10-04T17:51:56.724Z,12.32
2022-10-04T17:54:48.217Z,12.26
2022-10-04T17:57:30.910Z,12.17
2022-10-04T18:00:09.619Z,12.15
2022-10-04T18:03:04.266Z,12.16
2022-10-04T18:05:37.387Z,12.12
2022-10-04T18:08:14.057Z,12.06
2022-10-04T18:10:51.654Z,11.99
2022-10-04T18:13:27.246Z,11.98
2022-10-04T18:16:02.630Z,11.95
2022-10-04T18:18:39.040Z,11.88
2022-10-04T18:21:20.478Z,11.91
2022-10-04T18:23:59.555Z,11.95
2022-10-04T18:26:31.731Z,11.93
2022-10-04T18:29:02.638Z,11.99
2022-10-04T18:31:37.652Z,12.03
2022-10-04T18:34:29.454Z,12.07
2022-10-04T18:37:06.999Z,12.02
2022-10-04T18:39:49.578Z,12.03
2022-10-04T18:42:27.030Z,11.97
2022-10-04T18:45:00.507Z,11.95
2022-10-04T18:47:35.911Z,11.92
2022-10-04T18:50:17.181Z,11.86
2022-10-04T18:53:04.326Z,11.76
2022-10-04T18:55:42.432Z,11.74
2022-10-04T18:58:44.009Z,11.67
2022-10-04T19:01:54.055Z,11.61
2022-10-04T19:04:27.632Z,11.60
2022-10-04T19:07:03.145Z,11.57
2022-10-04T19:09:45.311Z,11.52
2022-10-04T19:12:17.441Z,11.56
2022-10-04T19:14:56.486Z,11.53
2022-10-04T19:17:29.539Z,11.43
2022-10-04T19:20:04.010Z,11.38
2022-10-04T19:22:46.711Z,11.36
2022-10-04T19:25:57.269Z,11.34
2022-10-04T19:28:34.774Z,11.36
2022-10-04T19:31:13.846Z,11.32
2022-10-04T19:33:50.232Z,11.34
2022-10-04T19:36:46.584Z,11.31
2022-10-04T19:39:32.121Z,11.35
2022-10-04T19:42:03.522Z,11.28
2022-10-04T19:44:43.391Z,11.31
2022-10-04T19:47:42.407Z,11.31
2022-10-04T19:50:21.234Z,11.31
2022-10-04T19:52:53.578Z,11.31
2022-10-04T19:55:26.391Z,11.31
2022-10-04T19:58:04.780Z,11.36
2022-10-04T20:00:35.766Z,11.41
2022-10-04T20:03:12.839Z,11.35
2022-10-04T20:05:46.119Z,11.34
2022-10-04T20:08:16.024Z,11.34
2022-10-04T20:10:44.868Z,11.35
2022-10-04T20:13:24.292Z,11.44
2022-10-04T20:15:54.709Z,11.44
2022-10-04T20:19:02.425Z,11.39
2022-10-04T20:21:32.909Z,11.50
2022-10-04T20:24:01.820Z,11.45
2022-10-04T20:27:00.341Z,11.39
2022-10-04T20:30:06.468Z,11.35
2022-10-04T20:33:02.607Z,11.30
2022-10-04T20:36:08.558Z,11.29
2022-10-04T20:38:49.930Z,11.31
2022-10-04T20:42:04.280Z,11.19
2022-10-04T20:44:43.799Z,11.26
2022-10-04T20:47:21.707Z,11.21
2022-10-04T20:49:50.044Z,11.24
2022-10-04T20:52:19.453Z,11.30
2022-10-04T20:54:53.529Z,11.32
2022-10-04T20:57:23.970Z,11.33
2022-10-04T20:59:55.656Z,11.38
2022-10-04T21:02:25.257Z,11.40
2022-10-04T21:04:54.006Z,11.45
2022-10-04T21:07:23.790Z,11.43
2022-10-04T21:09:54.807Z,11.51
2022-10-04T21:12:31.706Z,11.55
2022-10-04T21:15:05.131Z,11.55
2022-10-04T21:17:41.265Z,11.56
2022-10-04T21:20:15.912Z,11.60
2022-10-04T21:22:44.799Z,11.58
2022-10-04T21:25:44.128Z,11.53
2022-10-04T21:28:26.793Z,11.51
2022-10-04T21:30:54.874Z,11.52
2022-10-04T21:33:23.008Z,11.53
2022-10-04T21:35:52.418Z,11.50
2022-10-04T21:38:20.961Z,11.44
2022-10-04T21:40:50.444Z,11.39
2022-10-04T21:43:18.566Z,11.25
2022-10-04T21:45:46.839Z,11.28
2022-10-04T21:48:14.997Z,11.34
2022-10-04T21:50:43.733Z,11.37
2022-10-04T21:53:11.854Z,11.38
2022-10-04T21:55:39.923Z,11.30
2022-10-04T21:58:09.386Z,11.24
2022-10-04T22:00:37.561Z,11.33
2022-10-04T22:03:05.891Z,11.31
2022-10-04T22:05:33.984Z,11.32
2022-10-04T22:08:02.118Z,11.36
2022-10-04T22:10:31.187Z,11.47
2022-10-04T22:12:59.259Z,11.55
2022-10-04T22:15:29.713Z,11.57
2022-10-04T22:17:58.113Z,11.63
2022-10-04T22:20:26.545Z,11.64
2022-10-04T22:22:56.047Z,11.67
2022-10-04T22:25:25.252Z,11.70
2022-10-04T22:27:53.963Z,11.66
2022-10-04T22:30:25.458Z,11.62
2022-10-04T22:32:56.834Z,11.58
2022-10-04T22:35:25.057Z,11.53
2022-10-04T22:37:53.565Z,11.46
2022-10-04T22:40:23.112Z,11.52
2022-10-04T22:42:53.364Z,11.56
2022-10-04T22:45:24.291Z,11.51
2022-10-04T22:47:53.548Z,11.58
2022-10-04T22:50:38.198Z,11.65
2022-10-04T22:53:13.318Z,11.69
2022-10-04T22:55:41.788Z,11.70
2022-10-04T22:58:14.558Z,11.69
2022-10-04T23:00:43.067Z,11.75
2022-10-04T23:03:28.972Z,11.74
2022-10-04T23:05:58.702Z,11.77
2022-10-04T23:08:26.806Z,11.76
2022-10-04T23:10:56.680Z,11.77
2022-10-04T23:13:25.582Z,11.79
2022-10-04T23:15:57.243Z,11.83
2022-10-04T23:18:25.460Z,11.87
2022-10-04T23:21:03.440Z,11.85
2022-10-04T23:23:32.728Z,11.85
2022-10-04T23:26:00.869Z,11.87
2022-10-04T23:28:29.075Z,11.90
2022-10-04T23:31:06.158Z,11.90
2022-10-04T23:33:34.302Z,11.85
2022-10-04T23:36:03.853Z,11.77
2022-10-04T23:38:32.139Z,11.75
2022-10-04T23:41:00.556Z,11.78
2022-10-04T23:43:31.809Z,11.88
2022-10-04T23:46:00.267Z,11.98
2022-10-04T23:48:32.024Z,12.02
2022-10-04T23:51:01.157Z,12.15
2022-10-04T23:53:33.156Z,12.12
2022-10-04T23:56:05.677Z,12.06
2022-10-04T23:58:37.700Z,12.02
